SBCY/CGB METAR and TAF weather

Enter ICAO airport designator
Station Type Date Time Source
SBCY METAR 2020/02/29 03:00 UTC NOAA

SBCY 290300Z 31003KT 9999 FEW040 BKN100 27/24 Q1014


Station Type Date Time Source
SBCY Decoded METAR 2020/02/29 03:00 UTC NOAA

Cuiaba Aeroporto , Brazil (SBCY) 15-39S 056-06W 182M
Feb 28, 2020 - 10:00 PM EST / 2020.02.29 0300 UTC
Wind: from the NW (310 degrees) at 3 MPH (3 KT):0
Visibility: greater than 7 mile(s):0
Sky conditions: mostly cloudy
Temperature: 80 F (27 C)
Dew Point: 75 F (24 C)
Relative Humidity: 83%
Pressure (altimeter): 29.94 in. Hg (1014 hPa)
ob: SBCY 290300Z 31003KT 9999 FEW040 BKN100 27/24 Q1014
cycle: 3

Station Type Date Time Source
SBCY TAF 2020/02/29 00:00 UTC NOAA

TAF SBCY 282040Z 2900/2924 18005KT 8000 SCT030 FEW040TCU TN24/2908Z TX31/2917Z
BECMG 2901/2903 32007KT 9999 FEW030
BECMG 2910/2912 36005KT
BECMG 2915/2917 30007KT BKN020 FEW030TCU PROB40 2919/2922 18012KT 3500 TSRA BKN015 FEW025CB
BECMG 2922/2923 SCT025
RMK PGB

Example: see airport list